< < Back
Terminal Aerodrome Forecast


Current Version              Previous Versions:   1  2  3  4  5  6  7  8  9  

Terminal Aerodrome Forecast

585
FTUS42 KGSP 271455 AAA
TAFCLT
TAF AMD
KCLT 271455Z 2715/2812 01010G17KT P6SM VCSH FEW009 OVC020
      TEMPO 2715/2716 6SM -SHRA BR BKN009
     FM271700 01009G17KT P6SM OVC020
     FM272100 35004KT P6SM OVC040
     FM280500 33006KT P6SM BKN060
     FM280900 33007KT P6SM SCT250=

Latest METAR

708
SAUS70 KWBC 271700 RRC
MTRCLT
METAR KCLT 271652Z 01010G17KT 10SM SCT018 OVC026 09/04 A2977 RMK AO2 CIG
017 RWY 36 SLP077 T00890044


USA.gov is the U.S. government's official web portal to all federal, state and local government web resources and services.